Time;durP1;ratioP1;P1;durP2;ratioP2;P2;SDS_P1;SDS_P2;PMS_P1;PMS_P2;Temp;Humidity;BMP_temperature;BMP_pressure;BME280_temperature;BME280_humidity;BME280_pressure;Samples;Min_cycle;Max_cycle;Signal;HPM_P1;HPM_P2
2023/09/21 00:02:28;;;;;;;3.42;1.70;;;;;;;;;;4986068;28;20069;-82
2023/09/21 00:04:54;;;;;;;5.07;1.73;;;;;;;;;;4968188;28;20077;-82
2023/09/21 00:07:20;;;;;;;3.17;1.90;;;;;;;;;;4990297;28;20039;-83
2023/09/21 00:09:46;;;;;;;4.55;1.60;;;;;;;;;;4985939;28;20104;-81
2023/09/21 00:12:11;;;;;;;3.20;1.77;;;;;;;;;;4989061;28;20022;-82
2023/09/21 00:14:37;;;;;;;3.75;1.58;;;;;;;;;;4966646;28;20504;-82
2023/09/21 00:17:03;;;;;;;2.55;1.48;;;;;;;;;;4976112;28;20462;-82
2023/09/21 00:19:29;;;;;;;4.18;1.73;;;;;;;;;;4975775;28;20027;-82
2023/09/21 00:21:57;;;;;;;3.08;1.65;;;;;;;;;;4983927;28;20035;-82
2023/09/21 00:24:22;;;;;;;2.90;1.50;;;;;;;;;;4991711;28;20026;-82
2023/09/21 00:26:50;;;;;;;6.03;2.20;;;;;;;;;;4987660;28;20101;-82
2023/09/21 00:29:16;;;;;;;4.43;1.80;;;;;;;;;;4991652;28;20520;-82
2023/09/21 00:31:41;;;;;;;4.55;1.60;;;;;;;;;;4986122;28;20061;-83
2023/09/21 00:34:08;;;;;;;5.25;1.55;;;;;;;;;;4967481;28;20058;-83
2023/09/21 00:36:35;;;;;;;3.05;1.50;;;;;;;;;;4964027;28;20567;-83
2023/09/21 00:39:01;;;;;;;5.03;1.70;;;;;;;;;;4979482;28;20022;-83
2023/09/21 00:41:27;;;;;;;4.03;1.63;;;;;;;;;;4970227;28;20033;-84
2023/09/21 00:43:52;;;;;;;4.15;1.77;;;;;;;;;;4965764;28;20026;-82
2023/09/21 00:46:18;;;;;;;3.20;1.63;;;;;;;;;;4968846;28;20030;-83
2023/09/21 00:48:43;;;;;;;5.20;1.73;;;;;;;;;;4965293;28;20050;-84
2023/09/21 00:51:12;;;;;;;4.18;1.73;;;;;;;;;;4991624;28;20458;-83
2023/09/21 00:53:39;;;;;;;3.10;1.55;;;;;;;;;;4972185;28;20022;-80
2023/09/21 00:56:09;;;;;;;5.13;2.10;;;;;;;;;;4967049;28;20121;-84
2023/09/21 00:58:44;;;;;;;3.45;1.70;;;;;;;;;;4986302;28;20478;-78
2023/09/21 01:01:18;;;;;;;3.42;1.67;;;;;;;;;;4969451;28;20026;-78
2023/09/21 01:03:45;;;;;;;3.58;1.50;;;;;;;;;;4968369;28;20030;-78
2023/09/21 01:06:10;;;;;;;4.22;1.80;;;;;;;;;;4972395;28;20037;-78
2023/09/21 01:08:36;;;;;;;7.30;1.90;;;;;;;;;;4969040;28;20018;-79
2023/09/21 01:11:08;;;;;;;4.57;1.50;;;;;;;;;;4973987;28;20062;-81
2023/09/21 01:13:34;;;;;;;4.97;1.50;;;;;;;;;;4970106;28;20053;-82
2023/09/21 01:16:02;;;;;;;3.13;1.67;;;;;;;;;;4986688;28;20057;-84
2023/09/21 01:18:28;;;;;;;3.17;1.50;;;;;;;;;;4964462;28;20042;-84
2023/09/21 01:21:00;;;;;;;3.88;1.60;;;;;;;;;;4983469;28;20034;-83
2023/09/21 01:23:49;;;;;;;3.63;1.83;;;;;;;;;;4983490;28;20026;-83
2023/09/21 01:26:16;;;;;;;4.20;1.70;;;;;;;;;;4989934;28;20042;-78
2023/09/21 01:28:42;;;;;;;3.72;1.80;;;;;;;;;;4985248;28;20025;-78
2023/09/21 01:31:09;;;;;;;3.20;1.50;;;;;;;;;;4968388;28;20379;-77
2023/09/21 01:33:35;;;;;;;5.75;1.77;;;;;;;;;;4990767;28;20029;-83
2023/09/21 01:36:00;;;;;;;3.47;1.50;;;;;;;;;;4985866;28;20104;-80
2023/09/21 01:38:25;;;;;;;4.10;1.70;;;;;;;;;;4980938;28;20133;-83
2023/09/21 01:40:51;;;;;;;3.80;1.50;;;;;;;;;;4966247;28;20030;-83
2023/09/21 01:43:16;;;;;;;3.70;1.60;;;;;;;;;;4989382;28;20023;-83
2023/09/21 01:45:44;;;;;;;2.65;1.35;;;;;;;;;;4982557;28;20106;-83
2023/09/21 01:48:10;;;;;;;4.10;1.50;;;;;;;;;;4959361;28;20044;-82
2023/09/21 01:50:44;;;;;;;3.92;1.50;;;;;;;;;;4961859;28;20089;-84
2023/09/21 01:53:10;;;;;;;2.60;1.50;;;;;;;;;;4981382;28;20038;-83
2023/09/21 01:55:38;;;;;;;5.78;1.70;;;;;;;;;;4980463;28;20479;-81
2023/09/21 01:58:04;;;;;;;2.83;1.65;;;;;;;;;;4987027;28;20036;-81
2023/09/21 02:00:34;;;;;;;3.47;1.50;;;;;;;;;;4963375;28;20073;-82
2023/09/21 02:02:59;;;;;;;3.10;1.60;;;;;;;;;;4965853;28;20126;-82
2023/09/21 02:05:28;;;;;;;3.50;1.48;;;;;;;;;;4984544;28;20098;-80
2023/09/21 02:07:55;;;;;;;2.97;1.63;;;;;;;;;;4983550;28;20126;-81
2023/09/21 02:10:20;;;;;;;4.88;1.50;;;;;;;;;;4968326;28;20113;-82
2023/09/21 02:12:56;;;;;;;2.72;1.52;;;;;;;;;;4980376;28;20542;-82
2023/09/21 02:15:26;;;;;;;3.50;1.73;;;;;;;;;;4963717;28;20121;-82
2023/09/21 02:17:55;;;;;;;2.67;1.40;;;;;;;;;;4984200;28;20438;-82
2023/09/21 02:20:24;;;;;;;4.05;1.58;;;;;;;;;;4986933;28;20085;-82
2023/09/21 02:22:50;;;;;;;3.30;1.40;;;;;;;;;;4982425;28;20449;-82
2023/09/21 02:25:17;;;;;;;2.05;1.50;;;;;;;;;;4979621;28;20109;-83
2023/09/21 02:27:49;;;;;;;4.80;1.60;;;;;;;;;;4980999;28;20018;-83
2023/09/21 02:30:16;;;;;;;2.80;1.77;;;;;;;;;;4968151;28;20048;-82
2023/09/21 02:32:49;;;;;;;4.50;1.38;;;;;;;;;;4969083;28;20030;-82
2023/09/21 02:35:16;;;;;;;3.85;1.80;;;;;;;;;;4986905;28;20028;-82
2023/09/21 02:37:49;;;;;;;3.15;1.63;;;;;;;;;;4983650;28;20052;-83
2023/09/21 02:40:19;;;;;;;2.95;1.42;;;;;;;;;;4981075;28;20060;-83
2023/09/21 02:42:49;;;;;;;4.82;1.67;;;;;;;;;;4960249;28;20081;-80
2023/09/21 02:45:14;;;;;;;2.95;1.40;;;;;;;;;;4980009;28;20071;-83
2023/09/21 02:47:43;;;;;;;2.95;1.40;;;;;;;;;;4982716;28;20022;-83
2023/09/21 02:50:20;;;;;;;2.80;1.30;;;;;;;;;;4958474;28;20024;-83
2023/09/21 02:53:06;;;;;;;2.83;1.50;;;;;;;;;;4972775;28;20022;-83
2023/09/21 02:55:33;;;;;;;4.57;1.70;;;;;;;;;;4962022;28;20040;-83
2023/09/21 02:58:09;;;;;;;2.75;1.58;;;;;;;;;;4962139;28;20022;-83
2023/09/21 03:00:39;;;;;;;3.00;1.60;;;;;;;;;;4963408;28;20118;-83
2023/09/21 03:03:10;;;;;;;3.67;1.70;;;;;;;;;;4974759;28;20116;-83
2023/09/21 03:05:38;;;;;;;3.78;1.40;;;;;;;;;;4975359;28;20632;-83
2023/09/21 03:08:13;;;;;;;3.10;1.58;;;;;;;;;;4965061;28;20018;-84
2023/09/21 03:10:47;;;;;;;4.63;1.70;;;;;;;;;;4985501;28;20415;-83
2023/09/21 03:13:19;;;;;;;3.65;1.75;;;;;;;;;;4969319;28;20034;-82
2023/09/21 03:15:47;;;;;;;5.85;1.73;;;;;;;;;;4981493;28;20097;-84
2023/09/21 03:18:13;;;;;;;3.35;1.50;;;;;;;;;;4965278;28;20116;-84
2023/09/21 03:20:40;;;;;;;3.50;1.50;;;;;;;;;;4987791;28;20073;-83
2023/09/21 03:23:09;;;;;;;2.75;1.58;;;;;;;;;;4987013;28;20543;-84
2023/09/21 03:25:40;;;;;;;3.85;1.88;;;;;;;;;;4963524;28;20035;-84
2023/09/21 03:28:10;;;;;;;3.67;1.60;;;;;;;;;;4965881;28;20085;-83
2023/09/21 03:30:39;;;;;;;3.08;1.60;;;;;;;;;;4969253;28;20033;-84
2023/09/21 03:33:05;;;;;;;2.97;1.70;;;;;;;;;;4971557;28;20077;-78
2023/09/21 03:35:31;;;;;;;4.63;1.50;;;;;;;;;;4970074;28;20041;-77
2023/09/21 03:37:57;;;;;;;3.70;1.40;;;;;;;;;;4984083;28;20038;-78
2023/09/21 03:40:30;;;;;;;4.20;1.55;;;;;;;;;;4983797;28;20030;-77
2023/09/21 03:42:55;;;;;;;;;;;;;;;;;;4960238;28;20038;-79
2023/09/21 03:45:25;;;;;;;2.88;1.42;;;;;;;;;;4977388;28;20286;-83
2023/09/21 03:47:51;;;;;;;4.60;1.70;;;;;;;;;;4981569;28;20049;-78
2023/09/21 03:50:17;;;;;;;3.10;1.50;;;;;;;;;;4963184;28;20961;-78
2023/09/21 03:52:43;;;;;;;4.35;1.60;;;;;;;;;;4978413;28;20108;-79
2023/09/21 03:55:10;;;;;;;3.05;1.60;;;;;;;;;;4980939;28;20046;-78
2023/09/21 03:57:37;;;;;;;6.22;1.63;;;;;;;;;;4965273;28;20478;-78
2023/09/21 04:00:16;;;;;;;4.18;1.83;;;;;;;;;;4961488;28;20033;-78
2023/09/21 04:02:45;;;;;;;3.60;1.77;;;;;;;;;;4979879;28;20050;-78
2023/09/21 04:05:12;;;;;;;3.00;1.58;;;;;;;;;;4979045;28;20089;-78
2023/09/21 04:07:37;;;;;;;4.72;1.70;;;;;;;;;;4961457;28;20022;-79
2023/09/21 04:10:04;;;;;;;3.58;1.60;;;;;;;;;;4976191;28;20177;-78
2023/09/21 04:12:30;;;;;;;2.83;1.60;;;;;;;;;;4965077;28;20514;-78
2023/09/21 04:14:56;;;;;;;4.28;1.52;;;;;;;;;;4968821;28;20038;-78
2023/09/21 04:17:21;;;;;;;6.10;1.60;;;;;;;;;;4985132;28;20089;-78
2023/09/21 04:19:47;;;;;;;3.78;1.73;;;;;;;;;;4986006;28;20027;-79
2023/09/21 04:22:13;;;;;;;2.78;1.70;;;;;;;;;;4969000;28;20022;-80
2023/09/21 04:24:39;;;;;;;3.42;1.58;;;;;;;;;;4981877;28;20022;-78
2023/09/21 04:27:05;;;;;;;2.97;1.50;;;;;;;;;;4967668;28;20022;-77
2023/09/21 04:29:30;;;;;;;2.50;1.50;;;;;;;;;;4983532;28;20490;-77
2023/09/21 04:31:56;;;;;;;5.38;1.70;;;;;;;;;;4967518;28;20062;-79
2023/09/21 04:34:21;;;;;;;5.03;1.50;;;;;;;;;;4966586;28;20030;-78
2023/09/21 04:36:47;;;;;;;3.60;1.65;;;;;;;;;;4986994;28;20034;-78
2023/09/21 04:39:15;;;;;;;2.70;1.60;;;;;;;;;;4982076;28;20081;-80
2023/09/21 04:41:40;;;;;;;3.30;1.77;;;;;;;;;;4967689;28;20031;-77
2023/09/21 04:44:08;;;;;;;3.15;1.77;;;;;;;;;;4966682;28;20038;-77
2023/09/21 04:46:36;;;;;;;3.88;1.60;;;;;;;;;;4978179;28;20029;-78
2023/09/21 04:49:02;;;;;;;3.08;1.50;;;;;;;;;;4983605;28;20030;-77
2023/09/21 04:51:28;;;;;;;3.03;1.65;;;;;;;;;;4978032;28;20038;-78
2023/09/21 04:53:53;;;;;;;3.63;1.70;;;;;;;;;;4959700;28;20027;-79
2023/09/21 04:56:18;;;;;;;3.33;1.73;;;;;;;;;;4967574;28;20121;-78
2023/09/21 04:58:44;;;;;;;3.80;1.95;;;;;;;;;;4986837;28;20513;-78
2023/09/21 05:01:10;;;;;;;4.82;1.80;;;;;;;;;;4977784;28;20390;-78
2023/09/21 05:03:38;;;;;;;3.42;1.50;;;;;;;;;;4966916;28;20050;-79
2023/09/21 05:06:05;;;;;;;4.03;1.75;;;;;;;;;;4983700;28;20052;-77
2023/09/21 05:08:35;;;;;;;4.80;2.03;;;;;;;;;;4983301;28;20473;-79
2023/09/21 05:11:00;;;;;;;6.10;2.20;;;;;;;;;;4981437;28;20022;-77
2023/09/21 05:13:26;;;;;;;4.40;1.83;;;;;;;;;;4983189;28;20064;-77
2023/09/21 05:15:52;;;;;;;3.78;1.70;;;;;;;;;;4971499;28;20089;-77
2023/09/21 05:18:17;;;;;;;4.38;1.92;;;;;;;;;;4988452;28;20030;-77
2023/09/21 05:20:45;;;;;;;5.22;1.63;;;;;;;;;;4984321;28;20140;-78
2023/09/21 05:23:10;;;;;;;5.65;1.60;;;;;;;;;;4986175;28;20026;-79
2023/09/21 05:25:35;;;;;;;5.03;1.50;;;;;;;;;;4989221;28;20064;-77
2023/09/21 05:28:01;;;;;;;5.10;2.00;;;;;;;;;;4987184;28;20030;-78
2023/09/21 05:30:28;;;;;;;3.53;1.70;;;;;;;;;;4975307;28;20033;-77
2023/09/21 05:32:57;;;;;;;3.13;1.55;;;;;;;;;;4965237;28;20058;-77
2023/09/21 05:35:23;;;;;;;2.42;1.45;;;;;;;;;;4988111;28;20030;-77
2023/09/21 05:37:49;;;;;;;4.22;1.70;;;;;;;;;;4986939;28;20081;-77
2023/09/21 05:40:14;;;;;;;3.25;1.60;;;;;;;;;;4975009;28;20034;-83
2023/09/21 05:42:41;;;;;;;3.55;1.70;;;;;;;;;;4990047;28;20053;-83
2023/09/21 05:45:08;;;;;;;3.90;1.50;;;;;;;;;;4991950;28;20037;-83
2023/09/21 05:47:33;;;;;;;3.42;1.80;;;;;;;;;;4975640;28;20023;-84
2023/09/21 05:49:58;;;;;;;4.50;1.90;;;;;;;;;;4989510;28;20014;-83
2023/09/21 05:52:25;;;;;;;4.10;1.80;;;;;;;;;;4967683;28;20062;-83
2023/09/21 05:54:51;;;;;;;3.10;1.60;;;;;;;;;;4987704;28;20027;-83
2023/09/21 05:57:16;;;;;;;3.35;1.58;;;;;;;;;;4991877;28;20088;-82
2023/09/21 05:59:41;;;;;;;3.70;1.88;;;;;;;;;;4985752;28;20364;-82
2023/09/21 06:02:13;;;;;;;3.80;1.65;;;;;;;;;;4988183;28;20038;-81
2023/09/21 06:04:45;;;;;;;4.78;1.73;;;;;;;;;;4983276;28;20026;-82
2023/09/21 06:07:10;;;;;;;3.13;1.55;;;;;;;;;;4990047;28;20463;-77
2023/09/21 06:09:36;;;;;;;5.18;2.03;;;;;;;;;;4989923;28;20153;-79
2023/09/21 06:12:01;;;;;;;3.80;1.90;;;;;;;;;;4985137;28;20446;-77
2023/09/21 06:14:26;;;;;;;3.22;1.83;;;;;;;;;;4990739;28;20034;-78
2023/09/21 06:16:52;;;;;;;4.05;1.92;;;;;;;;;;4968966;28;20109;-77
2023/09/21 06:19:18;;;;;;;3.17;1.80;;;;;;;;;;4990501;28;20034;-77
2023/09/21 06:21:47;;;;;;;2.92;1.77;;;;;;;;;;4968493;28;20522;-78
2023/09/21 06:24:12;;;;;;;4.97;1.85;;;;;;;;;;4967036;28;20494;-78
2023/09/21 06:26:38;;;;;;;3.40;1.90;;;;;;;;;;4984448;28;20031;-78
2023/09/21 06:29:04;;;;;;;4.35;1.58;;;;;;;;;;4986877;28;20019;-77
2023/09/21 06:31:29;;;;;;;4.13;1.75;;;;;;;;;;4990969;28;20027;-77
2023/09/21 06:33:58;;;;;;;3.38;1.70;;;;;;;;;;4983409;28;20578;-77
2023/09/21 06:36:32;;;;;;;5.82;1.80;;;;;;;;;;4987371;28;20042;-77
2023/09/21 06:38:57;;;;;;;4.22;1.67;;;;;;;;;;4986816;28;20027;-79
2023/09/21 06:41:23;;;;;;;4.80;2.20;;;;;;;;;;4987863;28;20026;-77
2023/09/21 06:43:50;;;;;;;5.22;1.70;;;;;;;;;;4984199;28;20027;-77
2023/09/21 06:46:16;;;;;;;4.05;1.73;;;;;;;;;;4985821;28;20402;-77
2023/09/21 06:48:42;;;;;;;3.92;1.90;;;;;;;;;;4960964;28;20022;-77
2023/09/21 06:51:08;;;;;;;5.68;1.92;;;;;;;;;;4989119;28;20038;-77
2023/09/21 06:53:35;;;;;;;4.53;2.08;;;;;;;;;;4965239;28;20037;-78
2023/09/21 06:56:00;;;;;;;4.10;2.25;;;;;;;;;;4985347;28;20045;-78
2023/09/21 06:58:26;;;;;;;3.35;1.88;;;;;;;;;;4988827;28;20045;-77
2023/09/21 07:00:51;;;;;;;4.28;2.38;;;;;;;;;;4984603;28;20022;-77
2023/09/21 07:03:18;;;;;;;4.78;1.90;;;;;;;;;;4987200;28;20030;-77
2023/09/21 07:05:46;;;;;;;4.35;2.00;;;;;;;;;;4987273;28;20034;-77
2023/09/21 07:08:12;;;;;;;4.75;2.10;;;;;;;;;;4985290;28;20046;-77
2023/09/21 07:10:37;;;;;;;4.53;1.95;;;;;;;;;;4964488;28;20030;-77
2023/09/21 07:13:07;;;;;;;4.38;2.17;;;;;;;;;;4986518;28;20386;-77
2023/09/21 07:15:33;;;;;;;3.80;1.83;;;;;;;;;;4966021;28;20474;-77
2023/09/21 07:17:58;;;;;;;4.40;2.30;;;;;;;;;;4984134;28;20034;-80
2023/09/21 07:20:26;;;;;;;3.60;1.90;;;;;;;;;;4984661;28;20029;-82
2023/09/21 07:22:51;;;;;;;3.75;2.10;;;;;;;;;;4980723;28;20449;-82
2023/09/21 07:25:17;;;;;;;4.28;2.10;;;;;;;;;;4980083;28;20117;-81
2023/09/21 07:27:43;;;;;;;2.97;1.92;;;;;;;;;;4983427;28;20021;-80
2023/09/21 07:30:09;;;;;;;4.45;2.08;;;;;;;;;;4967415;28;20503;-82
2023/09/21 07:32:35;;;;;;;3.47;2.13;;;;;;;;;;4980971;28;20054;-82
2023/09/21 07:35:04;;;;;;;4.10;1.85;;;;;;;;;;4982925;28;20034;-82
2023/09/21 07:37:29;;;;;;;3.60;1.88;;;;;;;;;;4982262;28;20034;-82
2023/09/21 07:39:56;;;;;;;4.05;2.05;;;;;;;;;;4971739;28;20449;-79
2023/09/21 07:42:22;;;;;;;3.40;2.08;;;;;;;;;;4962979;28;20038;-79
2023/09/21 07:44:48;;;;;;;4.10;2.00;;;;;;;;;;4981450;28;20078;-79
2023/09/21 07:47:14;;;;;;;2.88;1.80;;;;;;;;;;4967358;28;20026;-82
2023/09/21 07:49:39;;;;;;;3.78;1.98;;;;;;;;;;4979167;28;20553;-82
2023/09/21 07:52:05;;;;;;;4.38;2.08;;;;;;;;;;4976766;28;20601;-82
2023/09/21 07:54:33;;;;;;;3.55;1.98;;;;;;;;;;4966944;28;20397;-83
2023/09/21 07:56:59;;;;;;;3.45;1.90;;;;;;;;;;4989733;28;20034;-83
2023/09/21 07:59:24;;;;;;;3.67;2.00;;;;;;;;;;4988174;28;20034;-82
2023/09/21 08:01:53;;;;;;;2.85;1.52;;;;;;;;;;4991405;28;20073;-80
2023/09/21 08:04:20;;;;;;;4.20;1.90;;;;;;;;;;4986436;28;20586;-81
2023/09/21 08:06:45;;;;;;;3.95;2.17;;;;;;;;;;4987303;28;20022;-82
2023/09/21 08:09:13;;;;;;;3.13;1.98;;;;;;;;;;4973624;28;20089;-83
2023/09/21 08:11:39;;;;;;;4.60;2.22;;;;;;;;;;4991034;28;20038;-81
2023/09/21 08:14:04;;;;;;;3.42;2.15;;;;;;;;;;4989732;28;20510;-82
2023/09/21 08:16:31;;;;;;;4.00;2.28;;;;;;;;;;4987331;28;20026;-83
2023/09/21 08:18:58;;;;;;;3.47;1.98;;;;;;;;;;4985539;28;20054;-82
2023/09/21 08:21:23;;;;;;;3.53;2.08;;;;;;;;;;4973790;28;20037;-82
2023/09/21 08:23:48;;;;;;;4.95;2.15;;;;;;;;;;4988274;28;20117;-83
2023/09/21 08:26:14;;;;;;;6.10;2.05;;;;;;;;;;4989188;28;20056;-81
2023/09/21 08:28:39;;;;;;;4.20;2.10;;;;;;;;;;4972763;28;20508;-79
2023/09/21 08:31:05;;;;;;;2.72;1.30;;;;;;;;;;4978897;28;20087;-83
2023/09/21 08:33:31;;;;;;;1.65;1.10;;;;;;;;;;4983426;28;20059;-82
2023/09/21 08:35:56;;;;;;;3.03;1.20;;;;;;;;;;4993562;28;20029;-81
2023/09/21 08:38:21;;;;;;;2.78;1.00;;;;;;;;;;4990222;28;20064;-78
2023/09/21 08:40:52;;;;;;;1.73;0.85;;;;;;;;;;4986163;28;20034;-77
2023/09/21 08:43:22;;;;;;;1.45;0.80;;;;;;;;;;4988877;28;20037;-77
2023/09/21 08:45:49;;;;;;;1.95;0.80;;;;;;;;;;4972427;28;20027;-78
2023/09/21 08:48:20;;;;;;;1.83;0.80;;;;;;;;;;4990436;28;20648;-81
2023/09/21 08:50:48;;;;;;;1.27;0.60;;;;;;;;;;4987708;28;20549;-83
2023/09/21 08:53:19;;;;;;;1.58;0.70;;;;;;;;;;4964866;28;20033;-83
2023/09/21 08:55:48;;;;;;;0.93;0.50;;;;;;;;;;4967038;28;20076;-83
2023/09/21 08:58:19;;;;;;;1.20;0.40;;;;;;;;;;4987861;28;20026;-83
2023/09/21 09:00:45;;;;;;;0.98;0.45;;;;;;;;;;4989105;28;20027;-82
2023/09/21 09:03:11;;;;;;;1.02;0.60;;;;;;;;;;4968185;28;20610;-82
2023/09/21 09:05:36;;;;;;;1.60;0.50;;;;;;;;;;4968358;28;20114;-82
2023/09/21 09:08:03;;;;;;;1.65;0.60;;;;;;;;;;4966018;28;20019;-83
2023/09/21 09:10:29;;;;;;;1.70;0.60;;;;;;;;;;4972631;28;20022;-82
2023/09/21 09:13:06;;;;;;;1.98;0.80;;;;;;;;;;4952820;28;20042;-82
2023/09/21 09:15:34;;;;;;;2.30;0.70;;;;;;;;;;4967229;28;20498;-82
2023/09/21 09:18:07;;;;;;;1.83;0.60;;;;;;;;;;4992733;28;20489;-82
2023/09/21 09:20:32;;;;;;;1.42;0.40;;;;;;;;;;4969755;28;21301;-83
2023/09/21 09:23:01;;;;;;;2.20;0.80;;;;;;;;;;4996381;28;20030;-83
2023/09/21 09:25:26;;;;;;;1.42;0.70;;;;;;;;;;4989254;28;20498;-82
2023/09/21 09:27:52;;;;;;;1.08;0.40;;;;;;;;;;4983508;28;20026;-82
2023/09/21 09:30:20;;;;;;;1.92;0.50;;;;;;;;;;4974094;28;20465;-81
2023/09/21 09:32:47;;;;;;;1.10;0.60;;;;;;;;;;4983010;28;20026;-81
2023/09/21 09:35:13;;;;;;;2.38;0.70;;;;;;;;;;4982601;28;20034;-80
2023/09/21 09:37:43;;;;;;;1.00;0.50;;;;;;;;;;4965976;28;20112;-82
2023/09/21 09:40:12;;;;;;;1.50;0.52;;;;;;;;;;4961478;28;20065;-82
2023/09/21 09:42:40;;;;;;;1.05;0.52;;;;;;;;;;4989699;28;20117;-81
2023/09/21 09:45:20;;;;;;;0.80;0.50;;;;;;;;;;4995521;28;20030;-82
2023/09/21 09:47:51;;;;;;;1.30;0.57;;;;;;;;;;4969659;28;20498;-82
2023/09/21 09:50:20;;;;;;;1.08;0.50;;;;;;;;;;4969299;28;20038;-82
2023/09/21 09:52:50;;;;;;;1.35;0.50;;;;;;;;;;4983288;28;20031;-83
2023/09/21 09:55:18;;;;;;;0.90;0.50;;;;;;;;;;4985494;28;20033;-82
2023/09/21 09:57:45;;;;;;;0.90;0.50;;;;;;;;;;4966757;28;20032;-77
2023/09/21 10:00:21;;;;;;;2.17;1.10;;;;;;;;;;4983758;28;20156;-78
2023/09/21 10:02:47;;;;;;;1.05;0.50;;;;;;;;;;4988911;28;20048;-77
2023/09/21 10:05:14;;;;;;;0.75;0.40;;;;;;;;;;4988233;28;20026;-78
2023/09/21 10:07:39;;;;;;;1.17;0.60;;;;;;;;;;4970422;28;20390;-77
2023/09/21 10:10:15;;;;;;;1.27;0.60;;;;;;;;;;4984115;28;20036;-77
2023/09/21 10:12:42;;;;;;;1.42;0.60;;;;;;;;;;4974330;28;20561;-77
2023/09/21 10:15:13;;;;;;;1.17;0.60;;;;;;;;;;4992588;28;20038;-78
2023/09/21 10:17:38;;;;;;;1.38;0.60;;;;;;;;;;4982976;28;20643;-77
2023/09/21 10:20:16;;;;;;;1.75;0.60;;;;;;;;;;4986263;28;20058;-77
2023/09/21 10:22:43;;;;;;;1.80;0.52;;;;;;;;;;4967609;28;20078;-78
2023/09/21 10:25:10;;;;;;;1.10;0.60;;;;;;;;;;4983350;28;20475;-77
2023/09/21 10:27:38;;;;;;;2.85;0.70;;;;;;;;;;4967610;28;20031;-77
2023/09/21 10:30:07;;;;;;;1.45;0.65;;;;;;;;;;4986099;28;20030;-81
2023/09/21 10:32:42;;;;;;;1.83;0.90;;;;;;;;;;4968017;28;20530;-81
2023/09/21 10:35:11;;;;;;;2.25;0.90;;;;;;;;;;4983387;28;20077;-81
2023/09/21 10:37:36;;;;;;;1.58;0.80;;;;;;;;;;4980558;28;20490;-81
2023/09/21 10:40:07;;;;;;;2.00;0.98;;;;;;;;;;4989573;28;20126;-81
2023/09/21 10:42:36;;;;;;;1.83;0.80;;;;;;;;;;4985425;28;20121;-81
2023/09/21 10:45:04;;;;;;;2.13;1.10;;;;;;;;;;4983224;28;20030;-82
2023/09/21 10:47:36;;;;;;;2.60;1.10;;;;;;;;;;4988663;28;20032;-82
2023/09/21 10:50:11;;;;;;;2.00;0.93;;;;;;;;;;4982140;28;20486;-83
2023/09/21 10:52:39;;;;;;;2.75;1.05;;;;;;;;;;4986811;28;20529;-82
2023/09/21 10:55:06;;;;;;;3.13;1.20;;;;;;;;;;4966686;28;20035;-83
2023/09/21 10:57:32;;;;;;;2.22;1.20;;;;;;;;;;4971271;28;20025;-82
2023/09/21 11:00:00;;;;;;;2.38;0.93;;;;;;;;;;4988877;28;20033;-83
2023/09/21 11:02:31;;;;;;;2.78;1.55;;;;;;;;;;4972113;28;20030;-82
2023/09/21 11:04:57;;;;;;;3.30;1.77;;;;;;;;;;4990187;28;20062;-82
2023/09/21 11:07:22;;;;;;;4.15;2.40;;;;;;;;;;4996507;28;20112;-81
2023/09/21 11:09:48;;;;;;;4.63;2.40;;;;;;;;;;4976099;28;20485;-81
2023/09/21 11:12:14;;;;;;;5.75;2.65;;;;;;;;;;4993979;28;20101;-81
2023/09/21 11:14:47;;;;;;;4.45;2.92;;;;;;;;;;4960397;28;20105;-81
2023/09/21 11:17:16;;;;;;;5.57;3.85;;;;;;;;;;4966864;28;20167;-81
2023/09/21 11:19:42;;;;;;;5.13;2.83;;;;;;;;;;4989523;28;20038;-81
2023/09/21 11:22:09;;;;;;;5.63;2.90;;;;;;;;;;4977944;28;20042;-82
2023/09/21 11:24:38;;;;;;;5.40;2.83;;;;;;;;;;4985081;28;20030;-82
2023/09/21 11:27:06;;;;;;;5.13;2.50;;;;;;;;;;4986950;28;20022;-82
2023/09/21 11:29:33;;;;;;;3.45;2.10;;;;;;;;;;4989013;28;20390;-82
2023/09/21 11:32:00;;;;;;;3.58;1.73;;;;;;;;;;4976064;28;20026;-82
2023/09/21 11:34:26;;;;;;;3.55;1.55;;;;;;;;;;4990180;28;20051;-82
2023/09/21 11:36:52;;;;;;;2.85;1.25;;;;;;;;;;4991252;28;20018;-81
2023/09/21 11:39:22;;;;;;;2.10;1.30;;;;;;;;;;4974818;28;20042;-80
2023/09/21 11:41:51;;;;;;;2.67;1.30;;;;;;;;;;4973585;28;20038;-81
2023/09/21 11:44:17;;;;;;;3.58;1.20;;;;;;;;;;4989722;28;20026;-81
2023/09/21 11:46:43;;;;;;;5.82;1.70;;;;;;;;;;4992000;28;20041;-80
2023/09/21 11:49:10;;;;;;;4.03;1.42;;;;;;;;;;4976557;28;20438;-81
2023/09/21 11:51:36;;;;;;;4.35;1.30;;;;;;;;;;4974192;28;20022;-81
2023/09/21 11:54:04;;;;;;;2.42;1.02;;;;;;;;;;4998016;28;20034;-82
2023/09/21 11:56:30;;;;;;;2.78;1.10;;;;;;;;;;4967543;28;20553;-81
2023/09/21 11:58:58;;;;;;;1.92;0.90;;;;;;;;;;4986477;28;20488;-80
2023/09/21 12:01:28;;;;;;;3.60;0.73;;;;;;;;;;4994202;28;20399;-81
2023/09/21 12:03:56;;;;;;;3.45;1.20;;;;;;;;;;4992221;28;20085;-81
2023/09/21 12:06:25;;;;;;;3.22;1.67;;;;;;;;;;4975067;28;20029;-80
2023/09/21 12:08:53;;;;;;;2.17;0.82;;;;;;;;;;4995891;28;20489;-81
2023/09/21 12:11:21;;;;;;;2.67;1.10;;;;;;;;;;4991578;28;20037;-81
2023/09/21 12:13:46;;;;;;;2.03;1.00;;;;;;;;;;4977055;28;20482;-81
2023/09/21 12:16:11;;;;;;;3.58;1.10;;;;;;;;;;4989374;28;20037;-77
2023/09/21 12:18:37;;;;;;;1.77;0.90;;;;;;;;;;4976940;28;20121;-83
2023/09/21 12:21:03;;;;;;;1.50;0.70;;;;;;;;;;4991682;28;20117;-81
2023/09/21 12:23:29;;;;;;;1.83;0.70;;;;;;;;;;4989455;28;20108;-80
2023/09/21 12:25:54;;;;;;;1.75;0.70;;;;;;;;;;4982378;28;20041;-83
2023/09/21 12:28:19;;;;;;;1.83;0.68;;;;;;;;;;4990641;28;20022;-83
2023/09/21 12:30:48;;;;;;;2.25;0.70;;;;;;;;;;4988340;28;20086;-81
2023/09/21 12:33:15;;;;;;;2.35;0.70;;;;;;;;;;4998286;28;20026;-80
2023/09/21 12:35:43;;;;;;;1.50;0.80;;;;;;;;;;4977387;28;20455;-82
2023/09/21 12:38:10;;;;;;;2.15;0.80;;;;;;;;;;4987524;28;20030;-83
2023/09/21 12:40:37;;;;;;;1.90;0.90;;;;;;;;;;4981128;28;20394;-84
2023/09/21 12:43:02;;;;;;;1.38;0.80;;;;;;;;;;4988647;28;20415;-83
2023/09/21 12:45:27;;;;;;;1.52;0.60;;;;;;;;;;4966854;28;20069;-83
2023/09/21 12:47:53;;;;;;;1.73;0.80;;;;;;;;;;4985559;28;20431;-82
2023/09/21 12:50:18;;;;;;;1.65;0.70;;;;;;;;;;4983107;28;20026;-82
2023/09/21 12:52:44;;;;;;;2.20;0.90;;;;;;;;;;4963772;28;20031;-82
2023/09/21 12:55:10;;;;;;;1.38;0.70;;;;;;;;;;4990580;28;20030;-84
2023/09/21 12:57:37;;;;;;;1.95;0.82;;;;;;;;;;4974222;28;20491;-84
2023/09/21 13:00:11;;;;;;;1.00;0.63;;;;;;;;;;4988715;28;20552;-81
2023/09/21 13:02:40;;;;;;;1.85;0.77;;;;;;;;;;4986856;28;20034;-83
2023/09/21 13:05:07;;;;;;;1.50;0.70;;;;;;;;;;4991160;28;20029;-81
2023/09/21 13:07:32;;;;;;;1.05;0.70;;;;;;;;;;4984699;28;20030;-83
2023/09/21 13:09:59;;;;;;;2.38;1.05;;;;;;;;;;4967121;28;20509;-83
2023/09/21 13:12:25;;;;;;;1.15;0.57;;;;;;;;;;4985621;28;20042;-83
2023/09/21 13:14:50;;;;;;;1.90;0.70;;;;;;;;;;4981209;28;20030;-82
2023/09/21 13:17:21;;;;;;;2.17;0.68;;;;;;;;;;4983431;28;20417;-81
2023/09/21 13:19:47;;;;;;;1.25;0.60;;;;;;;;;;4988803;28;20081;-82
2023/09/21 13:22:12;;;;;;;2.75;0.90;;;;;;;;;;4962059;28;20061;-77
2023/09/21 13:24:38;;;;;;;1.00;0.65;;;;;;;;;;4987105;28;20054;-79
2023/09/21 13:27:03;;;;;;;1.73;0.80;;;;;;;;;;4987307;28;20483;-79
2023/09/21 13:29:29;;;;;;;1.38;0.75;;;;;;;;;;4980179;28;20406;-80
2023/09/21 13:31:54;;;;;;;2.35;0.60;;;;;;;;;;4986122;28;20049;-80
2023/09/21 13:34:21;;;;;;;0.80;0.60;;;;;;;;;;4984359;28;20038;-79
2023/09/21 13:36:46;;;;;;;2.30;0.73;;;;;;;;;;4987218;28;20029;-80
2023/09/21 13:39:11;;;;;;;1.27;0.65;;;;;;;;;;4971998;28;20022;-80
2023/09/21 13:41:37;;;;;;;1.67;0.80;;;;;;;;;;4986872;28;20387;-79
2023/09/21 13:44:03;;;;;;;1.38;0.70;;;;;;;;;;4983082;28;20026;-80
2023/09/21 13:46:29;;;;;;;1.35;0.70;;;;;;;;;;4980274;28;20034;-80
2023/09/21 13:48:55;;;;;;;1.38;0.70;;;;;;;;;;4984548;28;20022;-79
2023/09/21 13:51:22;;;;;;;5.13;1.25;;;;;;;;;;4986429;28;20030;-79
2023/09/21 13:53:47;;;;;;;1.50;0.70;;;;;;;;;;4986408;28;20041;-79
2023/09/21 13:56:14;;;;;;;1.95;0.52;;;;;;;;;;4969616;28;20035;-80
2023/09/21 13:58:40;;;;;;;1.58;0.70;;;;;;;;;;4985248;28;20493;-80
2023/09/21 14:01:05;;;;;;;1.33;0.77;;;;;;;;;;4974217;28;20030;-80
2023/09/21 14:03:31;;;;;;;1.55;0.70;;;;;;;;;;4974084;28;20034;-80
2023/09/21 14:05:57;;;;;;;3.42;0.98;;;;;;;;;;4981274;28;20031;-80
2023/09/21 14:08:22;;;;;;;2.55;0.90;;;;;;;;;;4966512;28;20049;-80
2023/09/21 14:10:49;;;;;;;1.77;0.70;;;;;;;;;;4986060;28;20378;-80
2023/09/21 14:13:15;;;;;;;1.38;0.80;;;;;;;;;;4995345;28;20033;-80
2023/09/21 14:15:41;;;;;;;1.88;0.85;;;;;;;;;;4962986;28;20035;-79
2023/09/21 14:18:06;;;;;;;1.25;0.68;;;;;;;;;;4982534;28;20045;-79
2023/09/21 14:20:31;;;;;;;1.63;0.98;;;;;;;;;;4981526;28;20483;-79
2023/09/21 14:22:58;;;;;;;2.22;1.00;;;;;;;;;;4980168;28;20394;-77
2023/09/21 14:25:23;;;;;;;1.83;0.98;;;;;;;;;;4965094;28;20727;-77
2023/09/21 14:27:48;;;;;;;2.67;0.90;;;;;;;;;;4977910;28;20042;-76
2023/09/21 14:30:15;;;;;;;1.83;0.90;;;;;;;;;;4962272;28;20027;-76
2023/09/21 14:32:40;;;;;;;1.10;0.70;;;;;;;;;;4982891;28;20034;-75
2023/09/21 14:35:06;;;;;;;1.95;0.93;;;;;;;;;;4985080;28;20113;-78
2023/09/21 14:37:31;;;;;;;2.83;1.25;;;;;;;;;;4963189;28;20121;-77
2023/09/21 14:39:59;;;;;;;1.38;1.00;;;;;;;;;;4977626;28;20045;-77
2023/09/21 14:42:25;;;;;;;2.67;1.00;;;;;;;;;;4981606;28;20037;-78
2023/09/21 14:44:50;;;;;;;2.70;1.20;;;;;;;;;;4973887;28;20034;-77